createdAt,value
2022-08-26T00:00:25.635Z,23.40
2022-08-26T00:01:29.844Z,20.60
2022-08-26T00:02:25.687Z,24.60
2022-08-26T00:03:25.593Z,29.30
2022-08-26T00:04:26.063Z,25.60
2022-08-26T00:05:25.574Z,23.80
2022-08-26T00:06:25.567Z,26.40
2022-08-26T00:07:25.556Z,25.20
2022-08-26T00:08:25.546Z,26.30
2022-08-26T00:09:25.559Z,29.50
2022-08-26T00:10:25.856Z,22.80
2022-08-26T00:11:26.272Z,22.80
2022-08-26T00:12:27.887Z,26.30
2022-08-26T00:13:26.488Z,29.40
2022-08-26T00:14:29.664Z,30.70
2022-08-26T00:15:26.468Z,28.50
2022-08-26T00:16:25.506Z,21.10
2022-08-26T00:17:25.449Z,32.50
2022-08-26T00:18:25.448Z,24.20
2022-08-26T00:19:25.434Z,27.00
2022-08-26T00:20:25.460Z,24.80
2022-08-26T00:21:25.425Z,23.20
2022-08-26T00:22:25.402Z,24.50
2022-08-26T00:23:25.402Z,24.60
2022-08-26T00:24:25.427Z,31.30
2022-08-26T00:25:25.392Z,27.40
2022-08-26T00:26:25.363Z,31.80
2022-08-26T00:27:25.353Z,22.10
2022-08-26T00:28:25.344Z,28.00
2022-08-26T00:29:25.338Z,22.60
2022-08-26T00:30:26.672Z,26.40
2022-08-26T00:31:25.377Z,33.90
2022-08-26T00:32:25.305Z,23.10
2022-08-26T00:33:25.300Z,26.20
2022-08-26T00:34:25.317Z,22.50
2022-08-26T00:35:25.286Z,35.50
2022-08-26T00:36:25.258Z,32.40
2022-08-26T00:37:25.257Z,32.50
2022-08-26T00:38:25.242Z,34.30
2022-08-26T00:39:25.237Z,31.10
2022-08-26T00:40:25.393Z,32.40
2022-08-26T00:41:25.219Z,27.80
2022-08-26T00:42:25.202Z,25.50
2022-08-26T00:43:25.200Z,22.80
2022-08-26T00:44:25.180Z,27.10
2022-08-26T00:45:25.274Z,34.30
2022-08-26T00:46:25.166Z,29.80
2022-08-26T00:47:25.165Z,28.60
2022-08-26T00:48:25.141Z,33.00
2022-08-26T00:49:25.140Z,27.80
2022-08-26T00:50:25.151Z,30.20
2022-08-26T00:51:25.123Z,28.60
2022-08-26T00:52:25.105Z,25.70
2022-08-26T00:53:27.804Z,37.60
2022-08-26T00:54:27.033Z,37.30
2022-08-26T00:55:25.105Z,33.50
2022-08-26T00:56:26.067Z,34.70
2022-08-26T00:57:25.057Z,26.80
2022-08-26T00:58:25.049Z,38.30
2022-08-26T00:59:25.037Z,31.00
2022-08-26T01:00:25.048Z,30.00
2022-08-26T01:01:25.073Z,42.00
2022-08-26T01:02:25.051Z,30.10
2022-08-26T01:03:24.998Z,27.60
2022-08-26T01:04:26.122Z,37.70
2022-08-26T01:05:25.005Z,29.30
2022-08-26T01:06:24.967Z,29.70
2022-08-26T01:07:24.961Z,34.60
2022-08-26T01:08:24.948Z,34.40
2022-08-26T01:09:24.942Z,35.00
2022-08-26T01:10:24.952Z,36.90
2022-08-26T01:11:24.930Z,30.70
2022-08-26T01:12:24.903Z,28.90
2022-08-26T01:13:24.902Z,32.70
2022-08-26T01:14:24.884Z,37.10
2022-08-26T01:15:24.913Z,27.80
2022-08-26T01:16:24.916Z,29.40
2022-08-26T01:17:24.875Z,32.40
2022-08-26T01:18:24.852Z,25.50
2022-08-26T01:19:24.843Z,33.00
2022-08-26T01:20:24.865Z,34.40
2022-08-26T01:21:24.830Z,38.00
2022-08-26T01:22:28.297Z,35.90
2022-08-26T01:23:24.807Z,29.40
2022-08-26T01:24:24.787Z,26.90
2022-08-26T01:25:24.806Z,32.20
2022-08-26T01:26:24.769Z,33.60
2022-08-26T01:27:24.779Z,30.90
2022-08-26T01:28:24.749Z,34.30
2022-08-26T01:29:24.745Z,34.50
2022-08-26T01:30:24.762Z,32.70
2022-08-26T01:31:24.782Z,31.00
2022-08-26T01:32:24.712Z,30.70
2022-08-26T01:33:24.700Z,23.50
2022-08-26T01:34:24.681Z,29.00
2022-08-26T01:35:24.711Z,30.30
2022-08-26T01:36:24.674Z,32.20
2022-08-26T01:37:24.673Z,34.90
2022-08-26T01:38:24.653Z,29.00
2022-08-26T01:39:24.642Z,33.10
2022-08-26T01:40:24.696Z,35.40
2022-08-26T01:41:27.513Z,27.00
2022-08-26T01:42:24.614Z,32.30
2022-08-26T01:43:24.595Z,28.60
2022-08-26T01:44:24.585Z,26.40
2022-08-26T01:45:24.632Z,33.50
2022-08-26T01:46:24.566Z,34.40
2022-08-26T01:47:24.557Z,35.70
2022-08-26T01:48:24.544Z,37.20
2022-08-26T01:49:24.537Z,38.20
2022-08-26T01:50:27.856Z,40.00
2022-08-26T01:51:25.526Z,35.60
2022-08-26T01:52:24.506Z,30.70
2022-08-26T01:53:24.498Z,32.60
2022-08-26T01:54:24.480Z,35.40
2022-08-26T01:55:33.409Z,35.40
2022-08-26T01:56:25.460Z,37.20
2022-08-26T01:57:25.452Z,32.30
2022-08-26T01:58:24.443Z,37.80
2022-08-26T01:59:24.432Z,38.80
2022-08-26T02:00:24.460Z,30.60
2022-08-26T02:01:24.451Z,37.60
2022-08-26T02:02:24.528Z,41.50
2022-08-26T02:03:24.445Z,29.90
2022-08-26T02:04:24.488Z,38.20
2022-08-26T02:05:24.395Z,40.40
2022-08-26T02:06:24.356Z,33.90
2022-08-26T02:07:24.367Z,30.10
2022-08-26T02:08:25.006Z,35.90
2022-08-26T02:09:24.333Z,33.50
2022-08-26T02:10:24.344Z,28.20
2022-08-26T02:11:24.320Z,37.40
2022-08-26T02:12:24.306Z,32.00
2022-08-26T02:13:24.328Z,36.80
2022-08-26T02:14:24.279Z,41.70
2022-08-26T02:15:24.296Z,38.50
2022-08-26T02:16:24.293Z,37.30
2022-08-26T02:17:24.249Z,43.40
2022-08-26T02:18:24.240Z,36.00
2022-08-26T02:19:24.231Z,30.90
2022-08-26T02:20:26.437Z,47.50
2022-08-26T02:21:24.890Z,38.00
2022-08-26T02:22:24.501Z,43.90
2022-08-26T02:23:24.434Z,37.70
2022-08-26T02:24:24.172Z,33.80
2022-08-26T02:25:24.202Z,34.50
2022-08-26T02:26:24.152Z,36.40
2022-08-26T02:27:24.152Z,44.40
2022-08-26T02:28:26.659Z,39.10
2022-08-26T02:29:24.131Z,38.90
2022-08-26T02:30:24.137Z,36.70
2022-08-26T02:31:24.193Z,35.00
2022-08-26T02:32:24.094Z,45.00
2022-08-26T02:33:24.096Z,34.50
2022-08-26T02:34:24.066Z,38.10
2022-08-26T02:35:24.087Z,37.40
2022-08-26T02:36:24.056Z,42.70
2022-08-26T02:37:24.046Z,41.20
2022-08-26T02:38:24.028Z,35.10
2022-08-26T02:39:24.030Z,38.00
2022-08-26T02:40:24.100Z,39.30
2022-08-26T02:41:24.008Z,33.60
2022-08-26T02:42:23.989Z,37.50
2022-08-26T02:43:31.719Z,40.40
2022-08-26T02:44:24.969Z,33.00
2022-08-26T02:45:23.994Z,34.30
2022-08-26T02:46:29.986Z,37.50
2022-08-26T02:47:24.987Z,41.10
2022-08-26T02:48:23.933Z,39.10
2022-08-26T02:49:23.922Z,38.10
2022-08-26T02:50:23.934Z,34.60
2022-08-26T02:51:23.903Z,38.50
2022-08-26T02:52:23.886Z,37.30
2022-08-26T02:53:25.440Z,44.40
2022-08-26T02:54:23.864Z,42.60
2022-08-26T02:55:24.725Z,41.50
2022-08-26T02:56:23.845Z,35.90
2022-08-26T02:57:23.844Z,41.30
2022-08-26T02:58:23.835Z,32.70
2022-08-26T02:59:24.375Z,45.20
2022-08-26T03:00:23.912Z,44.60
2022-08-26T03:01:23.886Z,42.10
2022-08-26T03:02:23.850Z,37.80
2022-08-26T03:03:23.899Z,45.40
2022-08-26T03:04:23.773Z,39.50
2022-08-26T03:05:23.997Z,37.10
2022-08-26T03:06:23.740Z,42.50
2022-08-26T03:07:23.740Z,39.70
2022-08-26T03:08:23.739Z,36.70
2022-08-26T03:09:23.731Z,38.40
2022-08-26T03:10:23.722Z,33.90
2022-08-26T03:11:23.727Z,38.10
2022-08-26T03:12:23.681Z,39.20
2022-08-26T03:13:23.686Z,37.50
2022-08-26T03:14:23.665Z,45.40
2022-08-26T03:15:23.682Z,46.30
2022-08-26T03:16:23.759Z,44.20
2022-08-26T03:17:23.648Z,43.30
2022-08-26T03:18:23.623Z,35.10
2022-08-26T03:19:23.614Z,46.90
2022-08-26T03:20:23.625Z,43.00
2022-08-26T03:21:23.596Z,38.50
2022-08-26T03:22:23.583Z,35.70
2022-08-26T03:23:23.576Z,41.30
2022-08-26T03:24:24.559Z,38.00
2022-08-26T03:25:23.585Z,35.40
2022-08-26T03:26:23.546Z,41.30
2022-08-26T03:27:23.552Z,36.60
2022-08-26T03:28:23.518Z,38.70
2022-08-26T03:29:23.518Z,43.10
2022-08-26T03:30:23.534Z,45.60
2022-08-26T03:31:24.600Z,40.50
2022-08-26T03:32:23.480Z,34.20
2022-08-26T03:33:23.479Z,37.00
2022-08-26T03:34:23.460Z,38.10
2022-08-26T03:35:23.480Z,35.30
2022-08-26T03:36:23.439Z,46.80
2022-08-26T03:37:23.441Z,40.20
2022-08-26T03:38:23.424Z,40.80
2022-08-26T03:39:23.411Z,39.00
2022-08-26T03:40:23.502Z,35.60
2022-08-26T03:41:23.395Z,46.80
2022-08-26T03:42:23.373Z,45.70
2022-08-26T03:43:23.375Z,45.70
2022-08-26T03:44:23.356Z,43.30
2022-08-26T03:45:23.379Z,45.90
2022-08-26T03:46:23.370Z,38.10
2022-08-26T03:47:23.339Z,43.90
2022-08-26T03:48:23.316Z,37.20
2022-08-26T03:49:23.317Z,37.50
2022-08-26T03:50:24.362Z,46.30
2022-08-26T03:51:23.307Z,46.20
2022-08-26T03:52:23.278Z,36.70
2022-08-26T03:53:23.290Z,42.20
2022-08-26T03:54:23.258Z,38.70
2022-08-26T03:55:23.641Z,42.20
2022-08-26T03:56:23.239Z,39.40
2022-08-26T03:57:23.230Z,45.60
2022-08-26T03:58:23.219Z,39.00
2022-08-26T03:59:23.162Z,44.80
2022-08-26T04:00:23.223Z,34.60
2022-08-26T04:01:23.218Z,40.20
2022-08-26T04:02:23.220Z,47.70
2022-08-26T04:03:23.223Z,41.00
2022-08-26T04:04:24.545Z,34.60
2022-08-26T04:05:23.138Z,36.20
2022-08-26T04:06:23.133Z,39.60
2022-08-26T04:07:23.124Z,44.50
2022-08-26T04:08:23.074Z,40.00
2022-08-26T04:09:23.064Z,44.80
2022-08-26T04:10:23.065Z,33.30
2022-08-26T04:11:24.034Z,43.20
2022-08-26T04:12:23.036Z,32.10
2022-08-26T04:13:23.017Z,38.40
2022-08-26T04:14:22.997Z,43.80
2022-08-26T04:15:23.017Z,39.40
2022-08-26T04:16:23.017Z,38.70
2022-08-26T04:17:24.996Z,36.60
2022-08-26T04:18:22.963Z,51.30
2022-08-26T04:19:22.957Z,39.90
2022-08-26T04:20:22.992Z,37.60
2022-08-26T04:21:22.953Z,41.90
2022-08-26T04:22:24.899Z,39.00
2022-08-26T04:23:22.909Z,37.90
2022-08-26T04:24:22.890Z,36.60
2022-08-26T04:25:24.218Z,42.20
2022-08-26T04:26:22.887Z,43.60
2022-08-26T04:27:22.871Z,33.90
2022-08-26T04:28:22.866Z,44.50
2022-08-26T04:29:22.853Z,36.70
2022-08-26T04:30:22.872Z,45.10
2022-08-26T04:31:22.862Z,40.30
2022-08-26T04:32:22.814Z,37.40
2022-08-26T04:33:33.078Z,36.40
2022-08-26T04:34:23.795Z,37.20
2022-08-26T04:35:25.626Z,39.30
2022-08-26T04:36:22.777Z,53.10
2022-08-26T04:37:22.769Z,36.60
2022-08-26T04:38:22.757Z,39.70
2022-08-26T04:39:22.746Z,40.50
2022-08-26T04:40:22.814Z,40.20
2022-08-26T04:41:22.729Z,43.10
2022-08-26T04:42:26.084Z,51.20
2022-08-26T04:43:22.709Z,40.00
2022-08-26T04:44:22.698Z,42.50
2022-08-26T04:45:23.024Z,40.50
2022-08-26T04:46:22.748Z,45.10
2022-08-26T04:47:22.660Z,41.40
2022-08-26T04:48:22.658Z,38.20
2022-08-26T04:49:22.641Z,43.60
2022-08-26T04:50:22.639Z,40.80
2022-08-26T04:51:22.649Z,46.90
2022-08-26T04:52:22.618Z,38.80
2022-08-26T04:53:22.601Z,44.60
2022-08-26T04:54:22.593Z,42.40
2022-08-26T04:55:25.327Z,38.00
2022-08-26T04:56:23.603Z,42.70
2022-08-26T04:57:22.564Z,40.40
2022-08-26T04:58:22.562Z,38.40
2022-08-26T04:59:22.544Z,52.70
2022-08-26T05:00:22.535Z,41.80
2022-08-26T05:01:22.571Z,33.10
2022-08-26T05:02:22.516Z,41.50
2022-08-26T05:03:22.517Z,39.50
2022-08-26T05:04:22.541Z,36.10
2022-08-26T05:05:22.477Z,47.90
2022-08-26T05:06:22.499Z,42.40
2022-08-26T05:07:22.466Z,43.90
2022-08-26T05:08:22.449Z,33.50
2022-08-26T05:09:22.446Z,46.70
2022-08-26T05:10:22.435Z,37.20
2022-08-26T05:11:22.449Z,37.50
2022-08-26T05:12:22.410Z,44.40
2022-08-26T05:13:22.400Z,40.00
2022-08-26T05:14:22.403Z,38.00
2022-08-26T05:15:22.378Z,39.20
2022-08-26T05:16:22.461Z,48.40
2022-08-26T05:17:22.352Z,40.00
2022-08-26T05:18:22.709Z,46.10
2022-08-26T05:19:22.333Z,45.70
2022-08-26T05:20:26.129Z,40.80
2022-08-26T05:21:22.340Z,35.10
2022-08-26T05:22:22.314Z,38.50
2022-08-26T05:23:22.303Z,37.70
2022-08-26T05:24:22.292Z,40.50
2022-08-26T05:25:22.306Z,38.80
2022-08-26T05:26:23.209Z,49.20
2022-08-26T05:27:22.255Z,46.20
2022-08-26T05:28:22.247Z,38.50
2022-08-26T05:29:22.239Z,46.60
2022-08-26T05:30:22.227Z,46.00
2022-08-26T05:31:22.265Z,41.70
2022-08-26T05:32:22.237Z,44.10
2022-08-26T05:33:22.196Z,44.30
2022-08-26T05:34:22.189Z,40.70
2022-08-26T05:35:22.168Z,44.60
2022-08-26T05:36:22.199Z,46.10
2022-08-26T05:37:22.149Z,38.70
2022-08-26T05:38:22.149Z,48.50
2022-08-26T05:39:22.130Z,48.80
2022-08-26T05:40:22.146Z,52.90
2022-08-26T05:41:22.140Z,34.20
2022-08-26T05:42:22.107Z,48.40
2022-08-26T05:43:22.091Z,44.80
2022-08-26T05:44:22.364Z,39.60
2022-08-26T05:45:22.074Z,38.60
2022-08-26T05:46:22.139Z,47.20
2022-08-26T05:47:22.044Z,48.90
2022-08-26T05:48:22.853Z,60.40
2022-08-26T05:49:22.504Z,45.00
2022-08-26T05:50:22.024Z,37.50
2022-08-26T05:51:25.884Z,45.90
2022-08-26T05:52:22.004Z,39.80
2022-08-26T05:53:21.992Z,35.70
2022-08-26T05:54:22.568Z,42.50
2022-08-26T05:55:21.976Z,38.00
2022-08-26T05:56:21.986Z,48.40
2022-08-26T05:57:23.242Z,31.90
2022-08-26T05:58:21.940Z,41.60
2022-08-26T05:59:24.588Z,40.40
2022-08-26T06:00:21.920Z,42.50
2022-08-26T06:01:21.970Z,37.90
2022-08-26T06:02:21.930Z,45.10
2022-08-26T06:03:21.888Z,48.00
2022-08-26T06:04:21.880Z,49.70
2022-08-26T06:05:21.861Z,45.60
2022-08-26T06:06:27.208Z,42.00
2022-08-26T06:07:22.843Z,45.50
2022-08-26T06:08:21.841Z,49.80
2022-08-26T06:09:21.823Z,48.50
2022-08-26T06:10:32.130Z,50.70
2022-08-26T06:11:22.833Z,43.80
2022-08-26T06:12:21.802Z,39.80
2022-08-26T06:13:21.785Z,41.00
2022-08-26T06:14:21.777Z,38.90
2022-08-26T06:15:21.775Z,44.70
2022-08-26T06:16:21.805Z,41.40
2022-08-26T06:17:21.746Z,43.70
2022-08-26T06:18:21.744Z,41.70
2022-08-26T06:19:22.144Z,43.40
2022-08-26T06:20:21.746Z,38.30
2022-08-26T06:21:21.727Z,43.00
2022-08-26T06:22:23.526Z,35.30
2022-08-26T06:23:21.679Z,41.40
2022-08-26T06:24:21.741Z,40.20
2022-08-26T06:25:22.670Z,41.40
2022-08-26T06:26:21.683Z,46.50
2022-08-26T06:27:21.650Z,40.90
2022-08-26T06:28:21.641Z,46.30
2022-08-26T06:29:24.526Z,44.60
2022-08-26T06:30:21.620Z,43.90
2022-08-26T06:31:21.698Z,59.90
2022-08-26T06:32:21.592Z,47.30
2022-08-26T06:33:21.601Z,54.10
2022-08-26T06:34:21.573Z,53.30
2022-08-26T06:35:21.560Z,64.70
2022-08-26T06:36:21.595Z,63.40
2022-08-26T06:37:21.545Z,59.30
2022-08-26T06:38:21.542Z,50.80
2022-08-26T06:39:21.524Z,47.30
2022-08-26T06:40:21.570Z,58.10
2022-08-26T06:41:21.536Z,54.30
2022-08-26T06:42:21.497Z,54.50
2022-08-26T06:43:21.476Z,52.90
2022-08-26T06:44:21.479Z,68.00
2022-08-26T06:45:21.467Z,43.60
2022-08-26T06:46:21.550Z,46.60
2022-08-26T06:47:21.438Z,50.40
2022-08-26T06:48:21.450Z,49.10
2022-08-26T06:49:25.739Z,46.30
2022-08-26T06:50:22.423Z,43.80
2022-08-26T06:51:22.370Z,50.30
2022-08-26T06:52:24.628Z,49.40
2022-08-26T06:53:21.371Z,46.70
2022-08-26T06:54:21.385Z,50.30
2022-08-26T06:55:21.361Z,50.60
2022-08-26T06:56:22.375Z,48.00
2022-08-26T06:57:21.342Z,43.50
2022-08-26T06:58:21.333Z,53.90
2022-08-26T06:59:21.314Z,49.70
2022-08-26T07:00:21.313Z,43.30
2022-08-26T07:01:21.398Z,54.50
2022-08-26T07:02:21.327Z,51.40
2022-08-26T07:03:21.274Z,46.90
2022-08-26T07:04:21.916Z,47.00
2022-08-26T07:05:21.255Z,40.60
2022-08-26T07:06:21.295Z,55.80
2022-08-26T07:07:22.001Z,55.90
2022-08-26T07:08:21.228Z,48.40
2022-08-26T07:09:21.281Z,43.50
2022-08-26T07:10:22.244Z,47.40
2022-08-26T07:11:21.218Z,48.90
2022-08-26T07:12:21.193Z,55.30
2022-08-26T07:13:30.514Z,41.30
2022-08-26T07:14:22.181Z,43.50
2022-08-26T07:15:23.893Z,47.70
2022-08-26T07:16:22.193Z,43.10
2022-08-26T07:17:21.130Z,50.20
2022-08-26T07:18:21.782Z,46.80
2022-08-26T07:19:21.164Z,51.70
2022-08-26T07:20:22.161Z,47.80
2022-08-26T07:21:21.114Z,58.60
2022-08-26T07:22:21.084Z,54.60
2022-08-26T07:23:21.073Z,51.30
2022-08-26T07:24:21.064Z,40.80
2022-08-26T07:25:21.054Z,50.60
2022-08-26T07:26:21.074Z,62.60
2022-08-26T07:27:21.053Z,52.10
2022-08-26T07:28:21.061Z,49.40
2022-08-26T07:29:21.007Z,50.50
2022-08-26T07:30:21.006Z,52.30
2022-08-26T07:31:21.038Z,51.50
2022-08-26T07:32:20.987Z,50.40
2022-08-26T07:33:20.972Z,49.40
2022-08-26T07:34:20.959Z,55.40
2022-08-26T07:35:20.948Z,47.80
2022-08-26T07:36:20.968Z,55.30
2022-08-26T07:37:20.929Z,58.80
2022-08-26T07:38:20.942Z,51.80
2022-08-26T07:39:20.921Z,47.00
2022-08-26T07:40:20.938Z,48.40
2022-08-26T07:41:20.953Z,49.30
2022-08-26T07:42:20.882Z,44.80
2022-08-26T07:43:20.872Z,52.80
2022-08-26T07:44:20.864Z,64.60
2022-08-26T07:45:20.853Z,52.00
2022-08-26T07:46:29.905Z,48.20
2022-08-26T07:47:25.859Z,58.60
2022-08-26T07:48:21.444Z,51.60
2022-08-26T07:49:20.920Z,61.90
2022-08-26T07:50:20.899Z,47.60
2022-08-26T07:51:21.788Z,52.60
2022-08-26T07:52:25.998Z,56.30
2022-08-26T07:53:21.767Z,57.20
2022-08-26T07:54:20.757Z,58.60
2022-08-26T07:55:21.756Z,50.80
2022-08-26T07:56:20.748Z,62.30
2022-08-26T07:57:20.748Z,39.90
2022-08-26T07:58:20.719Z,62.10
2022-08-26T07:59:20.717Z,53.70
2022-08-26T08:00:20.766Z,50.30
2022-08-26T08:01:20.769Z,57.60
2022-08-26T08:02:20.704Z,56.20
2022-08-26T08:03:20.667Z,64.40
2022-08-26T08:04:26.240Z,47.00
2022-08-26T08:05:21.786Z,48.70
2022-08-26T08:06:20.643Z,50.00
2022-08-26T08:07:20.652Z,57.20
2022-08-26T08:08:27.771Z,56.70
2022-08-26T08:09:22.379Z,59.20
2022-08-26T08:10:20.826Z,54.30
2022-08-26T08:11:20.624Z,56.10
2022-08-26T08:12:20.636Z,56.70
2022-08-26T08:13:20.566Z,51.20
2022-08-26T08:14:22.225Z,52.00
2022-08-26T08:15:20.547Z,52.50
2022-08-26T08:16:20.583Z,56.40
2022-08-26T08:17:20.547Z,57.00
2022-08-26T08:18:20.764Z,59.00
2022-08-26T08:19:20.509Z,59.50
2022-08-26T08:20:20.509Z,56.70
2022-08-26T08:21:21.628Z,60.40
2022-08-26T08:22:20.511Z,57.90
2022-08-26T08:23:20.469Z,54.00
2022-08-26T08:24:20.461Z,60.80
2022-08-26T08:25:20.452Z,50.00
2022-08-26T08:26:20.468Z,61.30
2022-08-26T08:27:23.793Z,56.60
2022-08-26T08:28:20.427Z,60.40
2022-08-26T08:29:20.411Z,61.20
2022-08-26T08:30:22.686Z,50.30
2022-08-26T08:31:38.777Z,71.90
2022-08-26T08:32:21.391Z,60.60
2022-08-26T08:33:20.363Z,59.60
2022-08-26T08:34:21.618Z,56.50
2022-08-26T08:35:20.354Z,48.00
2022-08-26T08:36:20.535Z,58.20
2022-08-26T08:37:20.326Z,63.10
2022-08-26T08:38:20.322Z,58.60
2022-08-26T08:39:20.311Z,68.30
2022-08-26T08:40:20.482Z,55.90
2022-08-26T08:41:20.317Z,56.30
2022-08-26T08:42:20.288Z,55.50
2022-08-26T08:43:20.269Z,43.70
2022-08-26T08:44:20.347Z,52.30
2022-08-26T08:45:20.252Z,52.50
2022-08-26T08:46:20.328Z,50.40
2022-08-26T08:47:20.754Z,56.70
2022-08-26T08:48:20.263Z,55.80
2022-08-26T08:49:20.210Z,51.10
2022-08-26T08:50:20.214Z,58.40
2022-08-26T08:51:20.184Z,59.90
2022-08-26T08:52:20.253Z,48.50
2022-08-26T08:53:20.174Z,50.30
2022-08-26T08:54:21.989Z,53.50
2022-08-26T08:55:20.154Z,40.50
2022-08-26T08:56:20.212Z,52.20
2022-08-26T08:57:20.156Z,56.30
2022-08-26T08:58:20.125Z,51.90
2022-08-26T08:59:20.117Z,53.90
2022-08-26T09:00:20.106Z,51.30
2022-08-26T09:01:21.164Z,49.30
2022-08-26T09:02:20.188Z,52.50
2022-08-26T09:03:20.079Z,53.50
2022-08-26T09:04:20.060Z,45.90
2022-08-26T09:05:20.070Z,51.30
2022-08-26T09:06:20.077Z,44.40
2022-08-26T09:07:20.070Z,52.80
2022-08-26T09:08:20.117Z,43.80
2022-08-26T09:09:20.024Z,51.20
2022-08-26T09:10:20.012Z,44.40
2022-08-26T09:11:20.027Z,45.20
2022-08-26T09:12:20.011Z,42.20
2022-08-26T09:13:25.234Z,55.70
2022-08-26T09:14:20.965Z,52.50
2022-08-26T09:15:19.963Z,43.70
2022-08-26T09:16:20.258Z,58.30
2022-08-26T09:17:19.976Z,48.70
2022-08-26T09:18:19.955Z,46.50
2022-08-26T09:19:19.926Z,53.50
2022-08-26T09:20:19.926Z,44.10
2022-08-26T09:21:19.913Z,48.60
2022-08-26T09:22:19.919Z,41.90
2022-08-26T09:23:19.889Z,38.10
2022-08-26T09:24:19.889Z,46.60
2022-08-26T09:25:19.901Z,40.20
2022-08-26T09:26:19.859Z,43.90
2022-08-26T09:27:19.907Z,36.40
2022-08-26T09:28:19.853Z,50.50
2022-08-26T09:30:19.831Z,44.10
2022-08-26T09:31:19.835Z,32.50
2022-08-26T09:32:21.090Z,37.50
2022-08-26T09:33:19.832Z,32.80
2022-08-26T09:34:19.786Z,30.70
2022-08-26T09:35:19.775Z,30.40
2022-08-26T09:36:19.775Z,30.50
2022-08-26T09:37:19.778Z,25.00
2022-08-26T09:38:19.746Z,31.50
2022-08-26T09:39:19.747Z,37.90
2022-08-26T09:40:20.379Z,32.30
2022-08-26T09:41:19.720Z,33.30
2022-08-26T09:42:19.747Z,35.10
2022-08-26T09:43:22.821Z,33.10
2022-08-26T09:44:19.691Z,34.60
2022-08-26T09:45:19.693Z,27.70
2022-08-26T09:46:19.825Z,36.90
2022-08-26T09:47:19.690Z,27.90
2022-08-26T09:48:19.651Z,29.90
2022-08-26T09:49:19.649Z,36.50
2022-08-26T09:50:19.630Z,31.00
2022-08-26T09:51:19.641Z,35.80
2022-08-26T09:52:19.643Z,31.70
2022-08-26T09:53:21.045Z,31.70
2022-08-26T09:54:20.753Z,32.30
2022-08-26T09:55:19.592Z,23.00
2022-08-26T09:56:19.604Z,27.80
2022-08-26T09:57:19.572Z,24.80
2022-08-26T09:58:19.562Z,22.20
2022-08-26T09:59:19.557Z,22.60
2022-08-26T10:00:19.547Z,22.00
2022-08-26T10:01:19.644Z,20.00
2022-08-26T10:02:19.545Z,14.50
2022-08-26T10:03:19.531Z,21.00
2022-08-26T10:04:19.534Z,19.90
2022-08-26T10:05:20.046Z,27.40
2022-08-26T10:06:21.008Z,24.10
2022-08-26T10:07:19.481Z,22.40
2022-08-26T10:08:19.470Z,27.60
2022-08-26T10:09:19.472Z,20.20
2022-08-26T10:10:19.452Z,28.70
2022-08-26T10:11:19.452Z,25.10
2022-08-26T10:12:19.454Z,18.80
2022-08-26T10:13:19.423Z,28.00
2022-08-26T10:14:20.281Z,21.80
2022-08-26T10:15:19.411Z,22.30
2022-08-26T10:16:19.415Z,20.40
2022-08-26T10:17:19.414Z,28.60
2022-08-26T10:18:19.395Z,22.40
2022-08-26T10:19:19.375Z,23.00
2022-08-26T10:20:23.169Z,18.50
2022-08-26T10:21:19.357Z,22.20
2022-08-26T10:22:19.367Z,24.30
2022-08-26T10:23:19.340Z,24.90
2022-08-26T10:24:19.326Z,18.40
2022-08-26T10:25:19.324Z,25.20
2022-08-26T10:26:19.305Z,19.40
2022-08-26T10:27:19.320Z,21.50
2022-08-26T10:28:19.293Z,29.30
2022-08-26T10:29:19.281Z,27.50
2022-08-26T10:30:19.271Z,22.00
2022-08-26T10:31:19.964Z,24.00
2022-08-26T10:32:19.397Z,25.00
2022-08-26T10:33:19.252Z,22.50
2022-08-26T10:34:19.240Z,28.40
2022-08-26T10:35:19.233Z,29.00
2022-08-26T10:36:20.289Z,30.80
2022-08-26T10:37:19.243Z,30.60
2022-08-26T10:38:19.195Z,30.60
2022-08-26T10:39:19.197Z,18.70
2022-08-26T10:40:19.223Z,22.30
2022-08-26T10:41:19.179Z,26.90
2022-08-26T10:42:19.188Z,25.40
2022-08-26T10:43:19.155Z,26.20
2022-08-26T10:44:19.147Z,23.70
2022-08-26T10:45:19.136Z,25.70
2022-08-26T10:46:19.155Z,32.10
2022-08-26T10:47:19.139Z,29.20
2022-08-26T10:48:19.108Z,22.70
2022-08-26T10:49:19.100Z,41.30
2022-08-26T10:50:19.082Z,41.70
2022-08-26T10:51:19.081Z,29.70
2022-08-26T10:52:19.091Z,28.80
2022-08-26T10:53:19.072Z,27.50
2022-08-26T10:54:20.063Z,24.70
2022-08-26T10:55:19.072Z,22.90
2022-08-26T10:56:19.433Z,26.30
2022-08-26T10:57:19.073Z,25.40
2022-08-26T10:58:26.428Z,28.70
2022-08-26T10:59:20.015Z,25.80
2022-08-26T11:00:19.011Z,26.30
2022-08-26T11:01:22.992Z,34.80
2022-08-26T11:02:24.185Z,26.50
2022-08-26T11:03:22.495Z,30.00
2022-08-26T11:04:19.021Z,22.60
2022-08-26T11:05:18.956Z,21.40
2022-08-26T11:06:18.944Z,31.70
2022-08-26T11:07:18.959Z,39.90
2022-08-26T11:08:18.930Z,34.10
2022-08-26T11:09:18.920Z,38.30
2022-08-26T11:10:19.945Z,20.90
2022-08-26T11:11:18.901Z,31.20
2022-08-26T11:12:18.911Z,22.90
2022-08-26T11:13:18.881Z,20.30
2022-08-26T11:14:18.871Z,21.00
2022-08-26T11:15:19.866Z,23.40
2022-08-26T11:16:19.882Z,22.20
2022-08-26T11:17:18.873Z,23.20
2022-08-26T11:18:18.834Z,25.50
2022-08-26T11:19:18.834Z,24.20
2022-08-26T11:20:19.823Z,18.00
2022-08-26T11:21:18.822Z,23.70
2022-08-26T11:22:19.853Z,23.20
2022-08-26T11:23:18.795Z,18.00
2022-08-26T11:24:18.797Z,13.10
2022-08-26T11:25:18.777Z,18.00
2022-08-26T11:26:35.422Z,15.00
2022-08-26T11:27:19.787Z,22.50
2022-08-26T11:28:18.749Z,15.50
2022-08-26T11:29:18.739Z,15.70
2022-08-26T11:30:18.740Z,21.10
2022-08-26T11:31:18.847Z,16.00
2022-08-26T11:32:18.747Z,19.50
2022-08-26T11:33:18.718Z,14.80
2022-08-26T11:34:18.703Z,21.00
2022-08-26T11:35:18.693Z,11.00
2022-08-26T11:36:18.679Z,13.10
2022-08-26T11:38:18.673Z,25.20
2022-08-26T11:39:18.653Z,17.70
2022-08-26T11:40:18.695Z,25.00
2022-08-26T11:41:18.653Z,26.50
2022-08-26T11:42:20.184Z,14.50
2022-08-26T11:43:18.627Z,17.80
2022-08-26T11:44:18.617Z,18.10
2022-08-26T11:45:18.605Z,25.50
2022-08-26T11:46:18.654Z,27.90
2022-08-26T11:47:18.706Z,22.40
2022-08-26T11:48:18.570Z,28.90
2022-08-26T11:49:18.579Z,24.00
2022-08-26T11:50:18.575Z,26.60
2022-08-26T11:51:18.556Z,21.90
2022-08-26T11:52:18.565Z,26.10
2022-08-26T11:53:18.531Z,25.70
2022-08-26T11:54:30.540Z,36.50
2022-08-26T11:55:19.523Z,25.80
2022-08-26T11:56:18.501Z,28.70
2022-08-26T11:57:18.519Z,19.30
2022-08-26T11:58:18.482Z,28.30
2022-08-26T11:59:18.494Z,25.90
2022-08-26T12:00:22.190Z,35.90
2022-08-26T12:01:18.461Z,26.70
2022-08-26T12:02:18.473Z,20.50
2022-08-26T12:03:18.581Z,24.60
2022-08-26T12:04:18.486Z,19.70
2022-08-26T12:05:18.428Z,20.40
2022-08-26T12:06:18.438Z,27.10
2022-08-26T12:07:24.207Z,21.60
2022-08-26T12:08:19.433Z,23.70
2022-08-26T12:09:18.398Z,30.90
2022-08-26T12:10:18.377Z,29.90
2022-08-26T12:11:18.377Z,29.20
2022-08-26T12:12:18.379Z,31.60
2022-08-26T12:13:18.350Z,21.40
2022-08-26T12:14:18.338Z,19.40
2022-08-26T12:15:18.330Z,25.40
2022-08-26T12:16:18.364Z,30.00
2022-08-26T12:17:18.340Z,23.60
2022-08-26T12:18:18.304Z,16.30
2022-08-26T12:19:19.302Z,20.40
2022-08-26T12:20:18.284Z,18.10
2022-08-26T12:21:18.282Z,25.50
2022-08-26T12:22:18.264Z,14.80
2022-08-26T12:23:18.283Z,25.00
2022-08-26T12:24:18.244Z,52.60
2022-08-26T12:25:18.247Z,39.10
2022-08-26T12:26:18.225Z,31.00
2022-08-26T12:27:18.229Z,29.60
2022-08-26T12:28:18.227Z,21.70
2022-08-26T12:29:26.456Z,25.10
2022-08-26T12:30:19.386Z,20.90
2022-08-26T12:31:18.250Z,19.50
2022-08-26T12:32:18.181Z,34.80
2022-08-26T12:33:22.950Z,25.70
2022-08-26T12:34:19.151Z,29.00
2022-08-26T12:35:18.150Z,22.40
2022-08-26T12:36:18.161Z,24.20
2022-08-26T12:37:18.867Z,22.60
2022-08-26T12:38:18.142Z,29.60
2022-08-26T12:39:18.111Z,20.60
2022-08-26T12:40:18.172Z,21.70
2022-08-26T12:41:18.093Z,35.20
2022-08-26T12:42:18.082Z,22.00
2022-08-26T12:43:18.094Z,21.30
2022-08-26T12:44:18.054Z,17.70
2022-08-26T12:45:18.065Z,28.50
2022-08-26T12:46:18.044Z,27.10
2022-08-26T12:47:23.338Z,19.30
2022-08-26T12:48:19.037Z,24.90
2022-08-26T12:49:19.019Z,18.10
2022-08-26T12:50:18.019Z,25.40
2022-08-26T12:51:18.016Z,21.00
2022-08-26T12:52:17.982Z,22.70
2022-08-26T12:53:18.000Z,25.70
2022-08-26T12:54:17.970Z,53.80